Time;durP1;ratioP1;P1;durP2;ratioP2;P2;SDS_P1;SDS_P2;PMS_P1;PMS_P2;Temp;Humidity;BMP_temperature;BMP_pressure;BME280_temperature;BME280_humidity;BME280_pressure;Samples;Min_cycle;Max_cycle;Signal;HPM_P1;HPM_P2
2024/01/10 00:02:00;;;;;;;30.40;25.17;;;-9.50;1.00;;;;;;5033261;28;20208;-57
2024/01/10 00:04:26;;;;;;;41.50;26.27;;;-9.50;1.00;;;;;;5029966;28;20182;-36
2024/01/10 00:06:51;;;;;;;36.90;27.10;;;-9.50;1.00;;;;;;5033033;28;20237;-55
2024/01/10 00:09:17;;;;;;;30.43;25.20;;;-9.50;1.00;;;;;;5039888;28;21148;-56
2024/01/10 00:11:44;;;;;;;33.37;27.90;;;-9.50;1.00;;;;;;5026780;28;20449;-54
2024/01/10 00:14:10;;;;;;;26.67;23.98;;;-9.50;1.00;;;;;;5032634;28;20538;-55
2024/01/10 00:16:36;;;;;;;29.33;23.75;;;-9.50;1.00;;;;;;5025556;28;20636;-55
2024/01/10 00:19:01;;;;;;;42.53;26.47;;;-9.50;1.00;;;;;;5028964;28;20234;-53
2024/01/10 00:21:27;;;;;;;41.73;28.60;;;-9.50;1.00;;;;;;5037820;28;20181;-56
2024/01/10 00:23:53;;;;;;;44.40;25.00;;;-9.50;1.00;;;;;;5039210;28;20428;-57
2024/01/10 00:26:18;;;;;;;26.93;24.13;;;-9.40;1.00;;;;;;5031950;28;20424;-50
2024/01/10 00:28:47;;;;;;;27.93;24.67;;;-9.50;1.00;;;;;;5034223;28;20856;-56
2024/01/10 00:31:13;;;;;;;29.38;22.98;;;-9.50;1.00;;;;;;5029835;28;20186;-55
2024/01/10 00:33:40;;;;;;;37.25;26.70;;;-9.50;1.00;;;;;;5035197;28;20273;-36
2024/01/10 00:36:06;;;;;;;33.08;25.10;;;-9.50;1.00;;;;;;5033863;28;20632;-37
2024/01/10 00:38:31;;;;;;;28.48;24.10;;;-9.60;1.00;;;;;;5022667;28;20215;-36
2024/01/10 00:40:57;;;;;;;30.17;27.17;;;-9.60;1.00;;;;;;5034207;28;20579;-37
2024/01/10 00:43:22;;;;;;;30.67;25.57;;;-9.60;1.00;;;;;;5033842;28;20186;-36
2024/01/10 00:45:48;;;;;;;35.07;24.13;;;-9.60;1.00;;;;;;5034538;28;20260;-36
2024/01/10 00:48:14;;;;;;;38.03;28.57;;;-9.60;1.00;;;;;;5028700;28;20186;-36
2024/01/10 00:50:39;;;;;;;31.43;26.07;;;-9.60;1.00;;;;;;5028875;28;20225;-37
2024/01/10 00:53:05;;;;;;;30.23;25.30;;;-9.60;1.00;;;;;;5027133;28;20232;-36
2024/01/10 00:55:30;;;;;;;30.43;24.20;;;-9.60;1.00;;;;;;5030702;28;20183;-36
2024/01/10 00:57:56;;;;;;;32.57;26.10;;;-9.70;1.00;;;;;;5030890;28;20212;-54
2024/01/10 01:00:22;;;;;;;31.50;26.00;;;-9.70;1.00;;;;;;5028998;28;20331;-50
2024/01/10 01:02:47;;;;;;;37.03;23.83;;;-9.70;1.00;;;;;;5030122;28;20647;-52
2024/01/10 01:05:13;;;;;;;32.90;23.93;;;-9.70;1.00;;;;;;5035018;28;20186;-53
2024/01/10 01:07:38;;;;;;;27.27;24.37;;;-9.70;1.00;;;;;;5005198;28;20220;-48
2024/01/10 01:10:05;;;;;;;28.17;23.00;;;-9.70;1.00;;;;;;5034192;28;20181;-56
2024/01/10 01:12:31;;;;;;;31.58;23.92;;;-9.70;1.00;;;;;;5006964;28;20192;-55
2024/01/10 01:14:57;;;;;;;40.93;26.17;;;-9.80;1.00;;;;;;5034884;28;20190;-56
2024/01/10 01:17:23;;;;;;;29.50;26.60;;;-9.80;1.00;;;;;;5036004;28;20205;-56
2024/01/10 01:19:48;;;;;;;29.43;23.27;;;-9.80;1.00;;;;;;5030848;28;20471;-53
2024/01/10 01:22:14;;;;;;;27.63;22.30;;;-9.80;1.00;;;;;;5037531;28;20178;-55
2024/01/10 01:24:39;;;;;;;34.87;25.20;;;-9.80;1.00;;;;;;5037042;28;20174;-53
2024/01/10 01:27:05;;;;;;;34.03;25.60;;;-9.80;1.00;;;;;;5027877;28;20206;-44
2024/01/10 01:29:31;;;;;;;36.53;25.20;;;-9.80;1.00;;;;;;5028308;28;20428;-48
2024/01/10 01:31:57;;;;;;;36.87;26.70;;;-9.70;1.00;;;;;;5021207;28;20683;-53
2024/01/10 01:34:22;;;;;;;36.35;23.88;;;-9.80;1.00;;;;;;5027246;28;20356;-56
2024/01/10 01:36:48;;;;;;;29.40;23.77;;;-9.70;1.00;;;;;;5014198;28;20175;-55
2024/01/10 01:39:14;;;;;;;45.35;26.08;;;-9.70;1.00;;;;;;5034117;28;20177;-58
2024/01/10 01:41:40;;;;;;;28.37;24.20;;;-9.80;1.00;;;;;;5035683;28;20186;-36
2024/01/10 01:44:05;;;;;;;29.93;25.20;;;-9.90;1.00;;;;;;5007883;28;20222;-36
2024/01/10 01:46:32;;;;;;;31.97;25.70;;;-9.90;1.00;;;;;;5035757;28;20630;-38
2024/01/10 01:48:59;;;;;;;35.58;27.95;;;-9.90;1.00;;;;;;5038355;28;20786;-36
2024/01/10 01:51:26;;;;;;;27.73;24.75;;;-10.00;1.00;;;;;;5036080;28;20555;-36
2024/01/10 01:53:53;;;;;;;29.33;26.15;;;-10.00;1.00;;;;;;5036173;28;20186;-36
2024/01/10 01:56:19;;;;;;;33.05;26.67;;;-9.90;1.00;;;;;;5029531;28;20177;-36
2024/01/10 01:58:45;;;;;;;35.57;28.60;;;-9.90;1.00;;;;;;5037131;28;20671;-36
2024/01/10 02:01:12;;;;;;;31.67;24.77;;;-10.00;1.00;;;;;;5012098;28;20456;-37
2024/01/10 02:03:38;;;;;;;38.55;25.17;;;-10.00;1.00;;;;;;5035406;28;20244;-37
2024/01/10 02:06:04;;;;;;;37.70;25.43;;;-10.00;1.00;;;;;;5031258;28;20205;-36
2024/01/10 02:08:34;;;;;;;30.90;26.25;;;-10.00;1.00;;;;;;5025358;28;20516;-36
2024/01/10 02:11:00;;;;;;;35.85;25.20;;;-10.10;1.00;;;;;;5036593;28;20178;-36
2024/01/10 02:13:26;;;;;;;32.67;26.48;;;-10.10;1.00;;;;;;5031102;28;20208;-36
2024/01/10 02:15:52;;;;;;;31.90;25.33;;;-10.10;1.00;;;;;;5036822;28;20313;-37
2024/01/10 02:18:18;;;;;;;31.93;28.10;;;-10.10;1.00;;;;;;5031606;28;20205;-36
2024/01/10 02:20:44;;;;;;;34.23;24.20;;;-10.20;1.00;;;;;;5034756;28;20181;-37
2024/01/10 02:23:10;;;;;;;29.02;23.58;;;-10.20;1.00;;;;;;5034301;28;20178;-37
2024/01/10 02:25:36;;;;;;;30.20;27.33;;;-10.20;1.00;;;;;;5030444;28;20187;-37
2024/01/10 02:28:02;;;;;;;30.10;25.67;;;-10.20;1.00;;;;;;5033507;28;20185;-36
2024/01/10 02:30:28;;;;;;;40.70;27.33;;;-10.20;1.00;;;;;;5040692;28;20204;-58
2024/01/10 02:32:53;;;;;;;32.20;26.07;;;-10.20;1.00;;;;;;5034759;28;20189;-56
2024/01/10 02:35:19;;;;;;;31.80;25.63;;;-10.30;1.00;;;;;;5035872;28;20672;-56
2024/01/10 02:37:44;;;;;;;33.93;25.77;;;-10.30;1.00;;;;;;5029937;28;20202;-55
2024/01/10 02:40:10;;;;;;;38.77;24.77;;;-10.30;1.00;;;;;;5032426;28;20186;-54
2024/01/10 02:42:36;;;;;;;41.55;27.00;;;-10.30;1.00;;;;;;5038091;28;20192;-56
2024/01/10 02:45:03;;;;;;;27.50;24.47;;;-10.30;1.00;;;;;;5021963;28;20551;-57
2024/01/10 02:47:31;;;;;;;28.10;25.48;;;-10.30;1.00;;;;;;5035866;28;20189;-53
2024/01/10 02:49:56;;;;;;;33.83;25.83;;;-10.30;1.00;;;;;;5030841;28;20182;-54
2024/01/10 02:52:22;;;;;;;35.67;24.70;;;-10.30;1.00;;;;;;5040761;28;20186;-40
2024/01/10 02:54:48;;;;;;;52.97;26.17;;;-10.30;1.00;;;;;;5003328;28;20197;-36
2024/01/10 02:57:13;;;;;;;33.10;23.60;;;-10.30;1.00;;;;;;5036942;28;20568;-37
2024/01/10 02:59:39;;;;;;;33.60;24.10;;;-10.30;1.00;;;;;;5036012;28;20194;-36
2024/01/10 03:02:05;;;;;;;28.67;22.73;;;-10.30;1.00;;;;;;5034280;28;20175;-36
2024/01/10 03:04:30;;;;;;;27.87;24.50;;;-10.30;1.00;;;;;;5030550;28;20182;-37
2024/01/10 03:06:56;;;;;;;28.30;22.07;;;-10.40;1.00;;;;;;5040106;28;20260;-38
2024/01/10 03:09:23;;;;;;;31.70;24.47;;;-10.40;1.00;;;;;;5035714;28;20178;-36
2024/01/10 03:11:48;;;;;;;35.08;28.02;;;-10.30;1.00;;;;;;5033060;28;20585;-37
2024/01/10 03:14:14;;;;;;;31.10;23.00;;;-10.30;1.00;;;;;;5037926;28;20235;-37
2024/01/10 03:16:39;;;;;;;33.17;25.10;;;-10.30;1.00;;;;;;5033409;28;20350;-37
2024/01/10 03:19:05;;;;;;;26.93;23.87;;;-10.30;1.00;;;;;;5029696;28;20703;-36
2024/01/10 03:21:31;;;;;;;23.20;20.77;;;-10.30;1.00;;;;;;5028437;28;20676;-37
2024/01/10 03:23:57;;;;;;;30.93;23.03;;;-10.40;1.00;;;;;;5033225;28;20648;-37
2024/01/10 03:26:24;;;;;;;30.08;23.08;;;-10.40;1.00;;;;;;5035175;28;20189;-37
2024/01/10 03:28:50;;;;;;;41.67;24.05;;;-10.40;1.00;;;;;;5034354;28;20178;-37
2024/01/10 03:31:16;;;;;;;33.67;23.73;;;-10.40;1.00;;;;;;5035830;28;20660;-37
2024/01/10 03:33:42;;;;;;;28.75;23.83;;;-10.40;1.00;;;;;;5032450;28;20213;-36
2024/01/10 03:36:11;;;;;;;37.77;24.70;;;-10.40;1.00;;;;;;5032705;28;20183;-36
2024/01/10 03:38:37;;;;;;;33.70;23.40;;;-10.40;1.00;;;;;;5029639;28;20447;-36
2024/01/10 03:41:03;;;;;;;24.00;21.60;;;-10.40;1.00;;;;;;5035688;28;20653;-36
2024/01/10 03:43:28;;;;;;;26.40;23.10;;;-10.40;1.00;;;;;;5038416;28;20412;-36
2024/01/10 03:45:54;;;;;;;29.73;24.33;;;-10.40;1.00;;;;;;5032041;28;20535;-35
2024/01/10 03:48:20;;;;;;;24.85;21.45;;;-10.40;1.00;;;;;;5035476;28;20185;-54
2024/01/10 03:50:46;;;;;;;30.83;22.53;;;-10.40;1.00;;;;;;5035695;28;20182;-57
2024/01/10 03:53:11;;;;;;;28.40;22.83;;;-10.40;1.00;;;;;;5036597;28;20189;-52
2024/01/10 03:55:38;;;;;;;37.87;23.47;;;-10.30;1.00;;;;;;5023858;28;20364;-44
2024/01/10 03:58:04;;;;;;;31.38;25.10;;;-10.30;1.00;;;;;;5032226;28;20233;-56
2024/01/10 04:00:30;;;;;;;46.47;23.50;;;-10.40;1.00;;;;;;5027376;28;20721;-50
2024/01/10 04:02:56;;;;;;;39.07;23.67;;;-10.40;1.00;;;;;;5031751;28;20220;-56
2024/01/10 04:05:24;;;;;;;33.50;23.20;;;-10.40;1.00;;;;;;5029600;28;20431;-50
2024/01/10 04:07:49;;;;;;;32.90;22.80;;;-10.50;1.00;;;;;;5021244;28;20181;-51
2024/01/10 04:10:15;;;;;;;28.73;23.30;;;-10.50;1.00;;;;;;5030602;28;20204;-55
2024/01/10 04:12:42;;;;;;;38.60;25.52;;;-10.50;1.00;;;;;;5039492;28;20214;-55
2024/01/10 04:15:08;;;;;;;30.77;23.30;;;-10.50;1.00;;;;;;5030353;28;20194;-49
2024/01/10 04:17:33;;;;;;;28.67;22.37;;;-10.60;1.00;;;;;;5039580;28;20212;-54
2024/01/10 04:19:59;;;;;;;33.63;25.07;;;-10.50;1.00;;;;;;5033650;28;20464;-38
2024/01/10 04:22:25;;;;;;;28.73;24.10;;;-10.50;1.00;;;;;;5037778;28;20640;-36
2024/01/10 04:24:51;;;;;;;29.15;25.90;;;-10.50;1.00;;;;;;5035181;28;20274;-36
2024/01/10 04:27:18;;;;;;;32.33;22.48;;;-10.50;1.00;;;;;;5039329;28;20608;-38
2024/01/10 04:29:44;;;;;;;31.10;23.73;;;-10.40;1.00;;;;;;5036576;28;20519;-36
2024/01/10 04:32:10;;;;;;;33.95;23.08;;;-10.40;1.00;;;;;;5030440;28;20964;-37
2024/01/10 04:34:38;;;;;;;24.77;21.97;;;-10.40;1.00;;;;;;5021807;28;20194;-56
2024/01/10 04:37:04;;;;;;;35.83;24.38;;;-10.40;1.00;;;;;;5012885;28;20459;-53
2024/01/10 04:39:30;;;;;;;28.93;23.13;;;-10.50;1.00;;;;;;5033558;28;20186;-53
2024/01/10 04:41:55;;;;;;;34.17;23.50;;;-10.50;1.00;;;;;;5021296;28;20183;-51
2024/01/10 04:44:21;;;;;;;30.07;20.73;;;-10.40;1.00;;;;;;5035556;28;20505;-36
2024/01/10 04:46:47;;;;;;;38.03;23.30;;;-10.50;1.00;;;;;;5028952;28;20894;-37
2024/01/10 04:49:12;;;;;;;33.10;23.10;;;-10.50;1.00;;;;;;5038977;28;20270;-35
2024/01/10 04:51:39;;;;;;;33.03;22.87;;;-10.50;1.00;;;;;;5037854;28;20190;-36
2024/01/10 04:54:04;;;;;;;28.17;22.00;;;-10.60;1.00;;;;;;5028606;28;20186;-35
2024/01/10 04:56:30;;;;;;;27.93;20.73;;;-10.60;1.00;;;;;;5032729;28;20190;-36
2024/01/10 04:58:55;;;;;;;34.83;23.70;;;-10.60;1.00;;;;;;5032626;28;20290;-36
2024/01/10 05:01:21;;;;;;;35.17;23.30;;;-10.70;1.00;;;;;;5022369;28;20281;-36
2024/01/10 05:03:47;;;;;;;26.87;23.13;;;-10.70;1.00;;;;;;5027514;28;20192;-35
2024/01/10 05:06:13;;;;;;;31.30;23.30;;;-10.70;1.00;;;;;;5035893;28;20594;-36
2024/01/10 05:08:38;;;;;;;31.50;20.70;;;-10.70;1.00;;;;;;5028369;28;20270;-35
2024/01/10 05:11:04;;;;;;;32.10;22.13;;;-10.60;1.00;;;;;;5037787;28;20654;-36
2024/01/10 05:13:30;;;;;;;27.00;22.15;;;-10.60;1.00;;;;;;5034131;28;20228;-35
2024/01/10 05:15:55;;;;;;;26.30;22.10;;;-10.60;1.00;;;;;;5037908;28;20301;-35
2024/01/10 05:18:21;;;;;;;28.37;24.93;;;-10.50;1.00;;;;;;5037644;28;20198;-35
2024/01/10 05:20:47;;;;;;;31.27;24.40;;;-10.50;1.00;;;;;;5025958;28;20571;-35
2024/01/10 05:23:13;;;;;;;36.30;24.47;;;-10.50;1.00;;;;;;5030982;28;20190;-36
2024/01/10 05:25:39;;;;;;;33.57;22.87;;;-10.60;1.00;;;;;;5030985;28;20177;-35
2024/01/10 05:28:05;;;;;;;27.60;22.60;;;-10.60;1.00;;;;;;5033967;28;20717;-41
2024/01/10 05:30:31;;;;;;;37.65;23.70;;;-10.70;1.00;;;;;;5032329;28;20417;-36
2024/01/10 05:32:58;;;;;;;37.53;25.60;;;-10.70;1.00;;;;;;5034150;28;20240;-35
2024/01/10 05:35:25;;;;;;;26.67;23.90;;;-10.70;1.00;;;;;;5038207;28;20183;-35
2024/01/10 05:37:51;;;;;;;27.55;21.88;;;-10.70;1.00;;;;;;5028315;28;20660;-35
2024/01/10 05:40:18;;;;;;;30.60;21.87;;;-10.70;1.00;;;;;;5042924;28;20195;-36
2024/01/10 05:42:44;;;;;;;26.02;21.67;;;-10.70;1.00;;;;;;5038724;28;20423;-36
2024/01/10 05:45:10;;;;;;;24.98;22.02;;;-10.60;1.00;;;;;;5031764;28;20190;-36
2024/01/10 05:47:35;;;;;;;28.97;22.37;;;-10.60;1.00;;;;;;5035848;28;20189;-35
2024/01/10 05:50:02;;;;;;;34.47;23.07;;;-10.60;1.00;;;;;;5034105;28;20193;-36
2024/01/10 05:52:27;;;;;;;23.23;20.13;;;-10.60;1.00;;;;;;5038710;28;20178;-36
2024/01/10 05:54:53;;;;;;;33.23;23.10;;;-10.60;1.00;;;;;;5025636;28;20201;-36
2024/01/10 05:57:21;;;;;;;43.22;23.08;;;-10.60;1.00;;;;;;5027831;28;20275;-36
2024/01/10 05:59:46;;;;;;;23.80;21.42;;;-10.60;1.00;;;;;;5036111;28;20622;-36
2024/01/10 06:02:12;;;;;;;31.83;21.50;;;-10.60;1.00;;;;;;5021996;28;20213;-35
2024/01/10 06:04:37;;;;;;;40.37;22.33;;;-10.60;1.00;;;;;;5024729;28;20244;-36
2024/01/10 06:07:03;;;;;;;39.27;24.40;;;-10.60;1.00;;;;;;5032281;28;20620;-36
2024/01/10 06:09:29;;;;;;;28.80;22.00;;;-10.60;1.00;;;;;;5035999;28;20196;-36
2024/01/10 06:11:55;;;;;;;38.70;23.67;;;-10.60;1.00;;;;;;5033748;28;20417;-35
2024/01/10 06:14:20;;;;;;;29.80;23.63;;;-10.60;1.00;;;;;;5041434;28;20206;-37
2024/01/10 06:16:46;;;;;;;32.23;24.20;;;-10.70;1.00;;;;;;5040302;28;20257;-36
2024/01/10 06:19:11;;;;;;;27.67;21.20;;;-10.70;1.00;;;;;;5028773;28;20230;-36
2024/01/10 06:21:37;;;;;;;30.03;19.50;;;-10.70;1.00;;;;;;5036877;28;20180;-36
2024/01/10 06:24:04;;;;;;;25.33;20.63;;;-10.70;1.00;;;;;;5028501;28;20650;-36
2024/01/10 06:26:29;;;;;;;29.00;22.80;;;-10.70;1.00;;;;;;5036565;28;21459;-36
2024/01/10 06:28:55;;;;;;;25.87;22.30;;;-10.70;1.00;;;;;;5030400;28;20190;-36
2024/01/10 06:31:21;;;;;;;26.27;21.60;;;-10.70;1.00;;;;;;5029175;28;20277;-38
2024/01/10 06:33:46;;;;;;;24.87;22.00;;;-10.70;1.00;;;;;;5030191;28;20181;-36
2024/01/10 06:36:12;;;;;;;26.73;23.80;;;-10.60;1.00;;;;;;5028648;28;20640;-36
2024/01/10 06:38:41;;;;;;;24.20;21.03;;;-10.70;1.00;;;;;;5031012;28;20460;-36
2024/01/10 06:41:10;;;;;;;36.30;24.60;;;-10.70;1.00;;;;;;5029574;28;20428;-36
2024/01/10 06:43:36;;;;;;;26.35;21.95;;;-10.60;1.00;;;;;;5034562;28;20663;-36
2024/01/10 06:46:05;;;;;;;25.08;22.48;;;-10.60;1.00;;;;;;5035812;28;20242;-36
2024/01/10 06:48:31;;;;;;;29.67;22.75;;;-10.60;1.00;;;;;;5035748;28;20178;-37
2024/01/10 06:50:58;;;;;;;31.70;20.48;;;-10.60;1.00;;;;;;5040700;28;20213;-36
2024/01/10 06:53:24;;;;;;;26.98;21.02;;;-10.60;1.00;;;;;;5028480;28;20197;-36
2024/01/10 06:55:50;;;;;;;32.43;23.20;;;-10.60;1.00;;;;;;5027192;28;20550;-36
2024/01/10 06:58:15;;;;;;;28.77;20.97;;;-10.70;1.00;;;;;;5034676;28;20311;-36
2024/01/10 07:00:41;;;;;;;24.47;21.23;;;-10.60;1.00;;;;;;5034219;28;20182;-36
2024/01/10 07:03:07;;;;;;;29.83;20.00;;;-10.60;1.00;;;;;;5031387;28;20391;-36
2024/01/10 07:05:32;;;;;;;29.07;22.53;;;-10.60;1.00;;;;;;5040832;28;20186;-36
2024/01/10 07:07:58;;;;;;;26.47;18.30;;;-10.60;1.00;;;;;;5023846;28;20229;-36
2024/01/10 07:10:28;;;;;;;35.58;21.35;;;-10.50;1.00;;;;;;5039081;28;20182;-36
2024/01/10 07:12:55;;;;;;;26.55;22.33;;;-10.50;1.00;;;;;;5025484;28;20899;-36
2024/01/10 07:15:21;;;;;;;33.70;25.42;;;-10.50;1.00;;;;;;5037535;28;20523;-36
2024/01/10 07:17:47;;;;;;;31.33;23.27;;;-10.40;1.00;;;;;;5032427;28;20218;-37
2024/01/10 07:20:12;;;;;;;44.13;25.20;;;-10.40;1.00;;;;;;5039784;28;20238;-36
2024/01/10 07:22:43;;;;;;;27.97;24.53;;;-10.30;1.00;;;;;;5030724;28;20969;-36
2024/01/10 07:25:10;;;;;;;32.58;23.73;;;-10.30;1.00;;;;;;5037973;28;20577;-43
2024/01/10 07:27:39;;;;;;;36.80;25.42;;;-10.30;1.00;;;;;;5035250;28;20197;-55
2024/01/10 07:30:13;;;;;;;35.83;25.42;;;-10.30;1.00;;;;;;5023523;28;20182;-50
2024/01/10 07:32:44;;;;;;;23.77;21.48;;;-10.20;1.00;;;;;;5030019;28;20901;-57
2024/01/10 07:35:11;;;;;;;43.85;23.60;;;-10.20;1.00;;;;;;5038028;28;20185;-52
2024/01/10 07:37:37;;;;;;;30.40;22.83;;;-10.20;1.00;;;;;;5026743;28;20210;-52
2024/01/10 07:40:06;;;;;;;47.10;24.95;;;-10.20;1.00;;;;;;5039759;28;20194;-56
2024/01/10 07:42:34;;;;;;;24.58;21.45;;;-10.10;1.00;;;;;;5039202;28;20177;-54
2024/01/10 07:45:04;;;;;;;34.78;24.80;;;-10.10;1.00;;;;;;5039943;28;20177;-57
2024/01/10 07:47:42;;;;;;;31.52;24.50;;;-10.00;1.00;;;;;;5026627;28;20189;-45
2024/01/10 07:50:09;;;;;;;27.38;22.25;;;-9.90;1.00;;;;;;5031674;28;20185;-57
2024/01/10 07:52:36;;;;;;;31.92;25.27;;;-9.90;1.00;;;;;;5038380;28;20181;-51
2024/01/10 07:55:04;;;;;;;35.75;24.83;;;-9.80;1.00;;;;;;5027585;28;20469;-55
2024/01/10 07:57:30;;;;;;;26.67;21.75;;;-9.80;1.00;;;;;;5037923;28;20198;-48
2024/01/10 07:59:56;;;;;;;35.80;23.00;;;-9.70;1.00;;;;;;5032451;28;20746;-55
2024/01/10 08:02:22;;;;;;;29.00;23.20;;;-9.60;1.00;;;;;;5035683;28;20438;-52
2024/01/10 08:04:48;;;;;;;28.37;22.23;;;-9.50;1.00;;;;;;5031719;28;20206;-43
2024/01/10 08:07:13;;;;;;;42.00;25.67;;;-9.40;1.00;;;;;;5028243;28;20491;-57
2024/01/10 08:09:39;;;;;;;33.77;25.80;;;-9.30;1.00;;;;;;5035171;28;20408;-53
2024/01/10 08:12:05;;;;;;;41.33;27.30;;;-9.10;1.00;;;;;;5035730;28;20591;-53
2024/01/10 08:14:30;;;;;;;41.17;27.50;;;-9.00;1.00;;;;;;5030957;28;20178;-57
2024/01/10 08:17:00;;;;;;;36.73;24.63;;;-8.80;5.60;;;;;;5039351;28;20448;-55
2024/01/10 08:19:26;;;;;;;35.28;24.95;;;-8.50;16.40;;;;;;5007954;28;20233;-57
2024/01/10 08:21:52;;;;;;;38.80;26.05;;;-8.10;36.00;;;;;;5037831;28;20177;-49
2024/01/10 08:24:19;;;;;;;41.10;26.73;;;-7.70;44.90;;;;;;5028147;28;20190;-54
2024/01/10 08:26:44;;;;;;;41.78;26.00;;;-7.40;32.70;;;;;;5038209;28;20189;-55
2024/01/10 08:29:10;;;;;;;37.57;27.87;;;-7.20;1.00;;;;;;5029319;28;20225;-53
2024/01/10 08:31:36;;;;;;;30.90;24.70;;;-7.10;1.00;;;;;;5023414;28;20257;-45
2024/01/10 08:34:02;;;;;;;39.67;27.43;;;-7.00;1.00;;;;;;5020425;28;20240;-44
2024/01/10 08:36:28;;;;;;;39.05;27.65;;;-6.60;1.00;;;;;;5034409;28;20179;-48
2024/01/10 08:38:54;;;;;;;42.30;27.10;;;-6.20;99.90;;;;;;5025499;28;20941;-49
2024/01/10 08:41:19;;;;;;;35.93;26.57;;;-5.80;99.90;;;;;;5037436;28;20235;-47
2024/01/10 08:43:46;;;;;;;39.80;27.90;;;-5.40;1.00;;;;;;5019465;28;20304;-54
2024/01/10 08:46:12;;;;;;;42.00;29.50;;;-5.00;99.90;;;;;;5019341;28;20495;-56
2024/01/10 08:48:38;;;;;;;37.17;28.53;;;-4.50;99.90;;;;;;5036642;28;20192;-54
2024/01/10 08:51:03;;;;;;;44.67;31.30;;;-4.10;1.00;;;;;;5029554;28;20186;-55
2024/01/10 08:53:29;;;;;;;51.27;33.27;;;-3.50;1.00;;;;;;5032097;28;20201;-50
2024/01/10 08:55:55;;;;;;;39.03;29.57;;;-3.20;1.00;;;;;;5025639;28;20454;-55
2024/01/10 08:58:21;;;;;;;40.85;29.23;;;-2.80;1.00;;;;;;5038790;28;20201;-47
2024/01/10 09:00:46;;;;;;;40.50;29.60;;;-2.50;1.00;;;;;;5035343;28;20196;-47
2024/01/10 09:03:12;;;;;;;41.07;30.60;;;-2.00;1.00;;;;;;5028467;28;20268;-56
2024/01/10 09:05:38;;;;;;;38.60;29.50;;;-1.60;1.00;;;;;;5026035;28;20617;-54
2024/01/10 09:08:03;;;;;;;37.10;29.47;;;-1.20;1.00;;;;;;5038697;28;20182;-57
2024/01/10 09:10:29;;;;;;;38.10;30.67;;;-1.00;1.00;;;;;;5028926;28;20268;-55
2024/01/10 09:12:55;;;;;;;38.50;29.43;;;-0.80;1.00;;;;;;5039032;28;21193;-56
2024/01/10 09:15:20;;;;;;;35.90;28.83;;;-0.60;1.00;;;;;;5031193;28;20533;-49
2024/01/10 09:17:46;;;;;;;44.03;30.27;;;-0.20;1.00;;;;;;5038434;28;20553;-57
2024/01/10 09:20:12;;;;;;;37.10;28.70;;;0.30;1.00;;;;;;5032058;28;20655;-54
2024/01/10 09:22:38;;;;;;;37.67;29.75;;;0.50;1.00;;;;;;5038408;28;20189;-53
2024/01/10 09:25:05;;;;;;;36.75;29.95;;;0.80;1.00;;;;;;5034186;28;20213;-37
2024/01/10 09:27:34;;;;;;;37.70;30.20;;;1.00;1.00;;;;;;5037688;28;20180;-37
2024/01/10 09:30:03;;;;;;;41.58;28.98;;;1.30;1.00;;;;;;5035754;28;20186;-37
2024/01/10 09:32:29;;;;;;;45.00;31.23;;;1.50;99.90;;;;;;5024903;28;20296;-37
2024/01/10 09:34:56;;;;;;;40.80;31.23;;;1.70;99.90;;;;;;5020833;28;20864;-37
2024/01/10 09:37:22;;;;;;;37.97;28.88;;;1.90;99.90;;;;;;5007000;28;20185;-37
2024/01/10 09:39:47;;;;;;;34.40;28.35;;;1.90;99.90;;;;;;5033266;28;20179;-38
2024/01/10 09:42:14;;;;;;;39.00;29.00;;;2.30;99.90;;;;;;5038692;28;20204;-36
2024/01/10 09:44:41;;;;;;;39.92;30.30;;;2.50;99.90;;;;;;5021887;28;20736;-38
2024/01/10 09:47:08;;;;;;;39.15;31.55;;;2.50;99.90;;;;;;5024405;28;20659;-36
2024/01/10 09:49:34;;;;;;;38.30;29.92;;;2.70;99.90;;;;;;5023134;28;20193;-37
2024/01/10 09:52:03;;;;;;;40.40;32.10;;;2.80;99.90;;;;;;5032387;28;20174;-37
2024/01/10 09:54:30;;;;;;;37.38;30.08;;;3.30;99.90;;;;;;5019698;28;20190;-37
2024/01/10 09:56:59;;;;;;;36.50;29.15;;;3.60;99.90;;;;;;5033210;28;20194;-37
2024/01/10 09:59:24;;;;;;;40.83;31.45;;;3.70;99.90;;;;;;5029593;28;20644;-37
2024/01/10 10:01:52;;;;;;;38.47;30.73;;;3.90;99.90;;;;;;5031693;28;20192;-39
2024/01/10 10:04:19;;;;;;;40.88;30.40;;;4.20;99.90;;;;;;5030303;28;20274;-38
2024/01/10 10:06:45;;;;;;;38.60;31.30;;;4.50;99.90;;;;;;5038244;28;20651;-42
2024/01/10 10:09:12;;;;;;;37.00;30.57;;;4.60;99.90;;;;;;5041404;28;20424;-37
2024/01/10 10:11:37;;;;;;;39.03;30.00;;;4.80;99.90;;;;;;5039553;28;20416;-37
2024/01/10 10:14:15;;;;;;;36.43;29.47;;;5.10;99.90;;;;;;5041341;28;20978;-37
2024/01/10 10:16:41;;;;;;;35.80;29.97;;;5.50;99.90;;;;;;5040925;28;20224;-37
2024/01/10 10:19:07;;;;;;;38.27;31.27;;;5.90;99.90;;;;;;5041394;28;20574;-37
2024/01/10 10:21:33;;;;;;;37.80;32.30;;;5.60;99.90;;;;;;5029552;28;20267;-37
2024/01/10 10:24:01;;;;;;;39.03;30.97;;;5.60;99.90;;;;;;5041430;28;20185;-38
2024/01/10 10:26:29;;;;;;;35.23;31.27;;;5.70;99.90;;;;;;5039616;28;20436;-37
2024/01/10 10:28:55;;;;;;;38.37;31.27;;;5.70;99.90;;;;;;5038721;28;20805;-37
2024/01/10 10:31:22;;;;;;;34.60;30.67;;;5.90;99.90;;;;;;5035168;28;20502;-41
2024/01/10 10:33:52;;;;;;;36.57;31.33;;;5.90;99.90;;;;;;5041045;28;20474;-37
2024/01/10 10:36:19;;;;;;;39.00;31.07;;;6.20;99.90;;;;;;5032547;28;20722;-37
2024/01/10 10:38:47;;;;;;;39.90;32.13;;;6.50;99.90;;;;;;5031984;28;20813;-37
2024/01/10 10:41:13;;;;;;;38.63;31.40;;;6.70;99.90;;;;;;5036692;28;20436;-38
2024/01/10 10:43:40;;;;;;;37.67;31.27;;;6.70;99.90;;;;;;5027559;28;20794;-37
2024/01/10 10:46:07;;;;;;;40.30;31.37;;;6.80;99.90;;;;;;5029056;28;20409;-38
2024/01/10 10:48:37;;;;;;;40.10;32.50;;;6.90;99.90;;;;;;5023056;28;20444;-38
2024/01/10 10:51:10;;;;;;;43.10;33.47;;;7.10;99.90;;;;;;5039441;28;20420;-37
2024/01/10 10:53:45;;;;;;;36.03;32.00;;;7.50;99.90;;;;;;5034255;28;20428;-38
2024/01/10 10:56:11;;;;;;;38.17;32.33;;;7.70;99.90;;;;;;5022935;28;20425;-38
2024/01/10 10:58:44;;;;;;;41.13;32.17;;;8.30;99.90;;;;;;5025290;28;20527;-37
2024/01/10 11:01:14;;;;;;;36.60;31.73;;;8.80;99.90;;;;;;5035692;28;20445;-37
2024/01/10 11:03:41;;;;;;;35.03;31.07;;;8.90;99.90;;;;;;5034268;28;20470;-38
2024/01/10 11:06:07;;;;;;;38.50;31.90;;;8.90;99.90;;;;;;5035813;28;20409;-38
2024/01/10 11:08:37;;;;;;;36.27;31.03;;;9.30;99.90;;;;;;5037212;28;20916;-38
2024/01/10 11:11:07;;;;;;;35.17;31.37;;;9.40;99.90;;;;;;5027608;28;20417;-37
2024/01/10 11:14:02;;;;;;;37.10;31.40;;;9.60;99.90;;;;;;5037981;28;20930;-38
2024/01/10 11:17:04;;;;;;;34.63;29.13;;;9.80;99.90;;;;;;5031953;28;20449;-55
2024/01/10 11:20:11;;;;;;;33.43;29.70;;;10.00;99.90;;;;;;5039972;28;20537;-51
2024/01/10 11:22:56;;;;;;;32.63;29.13;;;10.30;99.90;;;;;;5037155;28;20757;-52
2024/01/10 11:25:21;;;;;;;34.83;30.67;;;10.10;99.90;;;;;;5040281;28;20963;-55
2024/01/10 11:27:54;;;;;;;36.27;30.10;;;10.20;99.90;;;;;;5034524;28;20425;-49
2024/01/10 11:30:51;;;;;;;33.00;29.37;;;10.50;99.90;;;;;;5040077;28;20498;-55
2024/01/10 11:33:21;;;;;;;31.17;27.97;;;10.90;99.90;;;;;;5019362;28;20440;-51
2024/01/10 11:36:17;;;;;;;32.10;28.63;;;11.10;99.90;;;;;;5039975;28;20552;-56
2024/01/10 11:38:54;;;;;;;32.10;28.67;;;11.10;99.90;;;;;;5039502;28;20478;-57
2024/01/10 11:41:27;;;;;;;33.90;30.50;;;11.50;99.90;;;;;;5038282;28;20451;-57
2024/01/10 11:44:17;;;;;;;34.97;30.63;;;11.30;99.90;;;;;;5032905;28;20523;-56
2024/01/10 11:46:57;;;;;;;31.73;28.47;;;10.80;99.90;;;;;;5035982;28;20902;-57
2024/01/10 11:49:25;;;;;;;32.73;29.27;;;10.90;99.90;;;;;;5037985;28;20408;-54
2024/01/10 11:51:54;;;;;;;33.60;30.03;;;10.50;99.90;;;;;;5035948;28;20887;-44
2024/01/10 11:54:40;;;;;;;33.77;29.80;;;10.40;99.90;;;;;;5025716;28;20428;-56
2024/01/10 11:57:18;;;;;;;31.87;28.60;;;10.70;99.90;;;;;;5031415;28;20520;-57
2024/01/10 11:59:47;;;;;;;30.63;27.47;;;10.80;99.90;;;;;;5039959;28;20466;-53
2024/01/10 12:02:17;;;;;;;29.97;26.87;;;10.90;99.90;;;;;;5035172;28;20427;-58
2024/01/10 12:04:43;;;;;;;31.30;27.93;;;11.00;99.90;;;;;;5039692;28;20452;-54
2024/01/10 12:07:09;;;;;;;32.57;29.07;;;11.00;99.90;;;;;;5037813;28;20478;-50
2024/01/10 12:09:37;;;;;;;33.77;30.13;;;10.90;99.90;;;;;;5039797;28;20416;-56
2024/01/10 12:12:04;;;;;;;28.10;25.20;;;11.30;99.90;;;;;;5018072;28;20344;-54
2024/01/10 12:14:30;;;;;;;23.00;20.83;;;11.70;99.90;;;;;;5037962;28;20557;-56
2024/01/10 12:16:57;;;;;;;20.30;18.53;;;11.60;99.90;;;;;;5038101;28;21515;-55
2024/01/10 12:19:22;;;;;;;20.23;18.50;;;11.40;99.90;;;;;;5039203;28;20480;-57
2024/01/10 12:21:52;;;;;;;16.70;15.40;;;11.80;99.90;;;;;;5038902;28;20571;-56
2024/01/10 12:24:18;;;;;;;16.43;15.20;;;12.10;99.90;;;;;;5039044;28;20221;-48
2024/01/10 12:26:48;;;;;;;16.37;15.00;;;11.40;99.90;;;;;;5038723;28;20428;-57
2024/01/10 12:29:17;;;;;;;15.83;14.60;;;11.30;99.90;;;;;;5024569;28;20905;-55
2024/01/10 12:31:45;;;;;;;15.97;14.87;;;11.70;99.90;;;;;;5043597;28;20467;-49